sensor_id;sensor_type;location;lat;lon;timestamp;temperature;humidity
75925;DHT22;64604;44.752;37.674;2022-11-25T00:00:37;15.98;51.33
75925;DHT22;64604;44.752;37.674;2022-11-25T00:01:38;15.93;51.47
75925;DHT22;64604;44.752;37.674;2022-11-25T00:02:43;15.88;51.92
75925;DHT22;64604;44.752;37.674;2022-11-25T00:03:46;15.83;52.27
75925;DHT22;64604;44.752;37.674;2022-11-25T00:04:48;15.83;51.98
75925;DHT22;64604;44.752;37.674;2022-11-25T00:05:49;15.82;51.79
75925;DHT22;64604;44.752;37.674;2022-11-25T00:06:51;15.83;51.60
75925;DHT22;64604;44.752;37.674;2022-11-25T00:07:53;15.83;51.95
75925;DHT22;64604;44.752;37.674;2022-11-25T00:08:59;15.83;51.31
75925;DHT22;64604;44.752;37.674;2022-11-25T00:10:02;15.82;51.84
75925;DHT22;64604;44.752;37.674;2022-11-25T00:11:04;15.83;52.31
75925;DHT22;64604;44.752;37.674;2022-11-25T00:12:06;15.81;51.33
75925;DHT22;64604;44.752;37.674;2022-11-25T00:13:08;15.81;52.69
75925;DHT22;64604;44.752;37.674;2022-11-25T00:14:12;15.82;52.37
75925;DHT22;64604;44.752;37.674;2022-11-25T00:15:13;15.78;52.70
75925;DHT22;64604;44.752;37.674;2022-11-25T00:16:17;15.78;53.10
75925;DHT22;64604;44.752;37.674;2022-11-25T00:17:19;15.80;52.63
75925;DHT22;64604;44.752;37.674;2022-11-25T00:18:21;15.82;52.92
75925;DHT22;64604;44.752;37.674;2022-11-25T00:19:22;15.76;55.00
75925;DHT22;64604;44.752;37.674;2022-11-25T00:20:24;15.73;55.41
75925;DHT22;64604;44.752;37.674;2022-11-25T00:21:28;15.68;56.77
75925;DHT22;64604;44.752;37.674;2022-11-25T00:22:31;15.60;56.79
75925;DHT22;64604;44.752;37.674;2022-11-25T00:23:33;15.59;55.52
75925;DHT22;64604;44.752;37.674;2022-11-25T00:24:34;15.57;55.78
75925;DHT22;64604;44.752;37.674;2022-11-25T00:25:36;15.55;55.71
75925;DHT22;64604;44.752;37.674;2022-11-25T00:26:37;15.51;56.00
75925;DHT22;64604;44.752;37.674;2022-11-25T00:27:39;15.47;55.64
75925;DHT22;64604;44.752;37.674;2022-11-25T00:28:42;15.41;56.64
75925;DHT22;64604;44.752;37.674;2022-11-25T00:29:44;15.38;56.68
75925;DHT22;64604;44.752;37.674;2022-11-25T00:30:45;15.34;55.91
75925;DHT22;64604;44.752;37.674;2022-11-25T00:31:47;15.34;56.62
75925;DHT22;64604;44.752;37.674;2022-11-25T00:32:49;15.33;57.44
75925;DHT22;64604;44.752;37.674;2022-11-25T00:33:51;15.32;56.97
75925;DHT22;64604;44.752;37.674;2022-11-25T00:34:52;15.33;56.79
75925;DHT22;64604;44.752;37.674;2022-11-25T00:35:54;15.31;56.96
75925;DHT22;64604;44.752;37.674;2022-11-25T00:36:55;15.28;56.77
75925;DHT22;64604;44.752;37.674;2022-11-25T00:37:57;15.27;57.34
75925;DHT22;64604;44.752;37.674;2022-11-25T00:39:04;15.29;56.39
75925;DHT22;64604;44.752;37.674;2022-11-25T00:40:07;15.32;56.02
75925;DHT22;64604;44.752;37.674;2022-11-25T00:41:09;15.37;55.54
75925;DHT22;64604;44.752;37.674;2022-11-25T00:42:29;15.39;56.23
75925;DHT22;64604;44.752;37.674;2022-11-25T00:43:49;15.39;55.68
75925;DHT22;64604;44.752;37.674;2022-11-25T00:45:09;15.39;55.77
75925;DHT22;64604;44.752;37.674;2022-11-25T00:46:10;15.39;56.55
75925;DHT22;64604;44.752;37.674;2022-11-25T00:48:13;15.42;55.81
75925;DHT22;64604;44.752;37.674;2022-11-25T00:49:16;15.42;56.26
75925;DHT22;64604;44.752;37.674;2022-11-25T00:50:17;15.41;56.45
75925;DHT22;64604;44.752;37.674;2022-11-25T00:51:19;15.41;56.31
75925;DHT22;64604;44.752;37.674;2022-11-25T00:52:23;15.40;55.88
75925;DHT22;64604;44.752;37.674;2022-11-25T00:53:25;15.40;56.14
75925;DHT22;64604;44.752;37.674;2022-11-25T00:54:27;15.39;55.17
75925;DHT22;64604;44.752;37.674;2022-11-25T00:55:29;15.38;56.18
75925;DHT22;64604;44.752;37.674;2022-11-25T00:56:50;15.33;56.03
75925;DHT22;64604;44.752;37.674;2022-11-25T00:57:52;15.32;55.29
75925;DHT22;64604;44.752;37.674;2022-11-25T00:58:53;15.31;56.71
75925;DHT22;64604;44.752;37.674;2022-11-25T00:59:55;15.28;56.29
75925;DHT22;64604;44.752;37.674;2022-11-25T01:01:00;15.25;55.91
75925;DHT22;64604;44.752;37.674;2022-11-25T01:02:02;15.26;56.00
75925;DHT22;64604;44.752;37.674;2022-11-25T01:03:04;15.27;56.19
75925;DHT22;64604;44.752;37.674;2022-11-25T01:04:07;15.29;55.38
75925;DHT22;64604;44.752;37.674;2022-11-25T01:05:08;15.30;55.52
75925;DHT22;64604;44.752;37.674;2022-11-25T01:06:10;15.31;55.13
75925;DHT22;64604;44.752;37.674;2022-11-25T01:07:12;15.33;55.19
75925;DHT22;64604;44.752;37.674;2022-11-25T01:08:14;15.36;54.91
75925;DHT22;64604;44.752;37.674;2022-11-25T01:09:15;15.37;55.24
75925;DHT22;64604;44.752;37.674;2022-11-25T01:10:17;15.38;54.92
75925;DHT22;64604;44.752;37.674;2022-11-25T01:11:21;15.39;54.75
75925;DHT22;64604;44.752;37.674;2022-11-25T01:12:23;15.41;55.36
75925;DHT22;64604;44.752;37.674;2022-11-25T01:13:26;15.44;54.79
75925;DHT22;64604;44.752;37.674;2022-11-25T01:14:27;15.45;54.39
75925;DHT22;64604;44.752;37.674;2022-11-25T01:15:29;15.48;54.42
75925;DHT22;64604;44.752;37.674;2022-11-25T01:16:31;15.52;54.13
75925;DHT22;64604;44.752;37.674;2022-11-25T01:17:32;15.53;54.52
75925;DHT22;64604;44.752;37.674;2022-11-25T01:18:34;15.55;54.90
75925;DHT22;64604;44.752;37.674;2022-11-25T01:19:35;15.56;54.91
75925;DHT22;64604;44.752;37.674;2022-11-25T01:20:40;15.57;54.59
75925;DHT22;64604;44.752;37.674;2022-11-25T01:21:42;15.57;54.67
75925;DHT22;64604;44.752;37.674;2022-11-25T01:22:46;15.56;54.87
75925;DHT22;64604;44.752;37.674;2022-11-25T01:23:48;15.57;54.68
75925;DHT22;64604;44.752;37.674;2022-11-25T01:24:50;15.59;54.35
75925;DHT22;64604;44.752;37.674;2022-11-25T01:25:54;15.61;54.36
75925;DHT22;64604;44.752;37.674;2022-11-25T01:26:55;15.61;54.36
75925;DHT22;64604;44.752;37.674;2022-11-25T01:27:57;15.62;54.71
75925;DHT22;64604;44.752;37.674;2022-11-25T01:29:03;15.61;55.14
75925;DHT22;64604;44.752;37.674;2022-11-25T01:30:08;15.58;54.80
75925;DHT22;64604;44.752;37.674;2022-11-25T01:31:16;15.54;55.10
75925;DHT22;64604;44.752;37.674;2022-11-25T01:32:17;15.52;55.89
75925;DHT22;64604;44.752;37.674;2022-11-25T01:33:19;15.47;56.16
75925;DHT22;64604;44.752;37.674;2022-11-25T01:34:23;15.52;54.86
75925;DHT22;64604;44.752;37.674;2022-11-25T01:35:25;15.52;55.54
75925;DHT22;64604;44.752;37.674;2022-11-25T01:36:27;15.47;56.15
75925;DHT22;64604;44.752;37.674;2022-11-25T01:37:29;15.44;55.71
75925;DHT22;64604;44.752;37.674;2022-11-25T01:38:31;15.43;55.28
75925;DHT22;64604;44.752;37.674;2022-11-25T01:39:33;15.44;56.21
75925;DHT22;64604;44.752;37.674;2022-11-25T01:40:35;15.38;57.34
75925;DHT22;64604;44.752;37.674;2022-11-25T01:41:36;15.28;57.93
75925;DHT22;64604;44.752;37.674;2022-11-25T01:42:42;15.19;57.58
75925;DHT22;64604;44.752;37.674;2022-11-25T01:44:02;15.16;57.26
75925;DHT22;64604;44.752;37.674;2022-11-25T01:46:30;15.13;57.22
75925;DHT22;64604;44.752;37.674;2022-11-25T01:47:33;15.11;58.02
75925;DHT22;64604;44.752;37.674;2022-11-25T01:49:58;15.08;56.99
75925;DHT22;64604;44.752;37.674;2022-11-25T01:51:05;15.10;57.01
75925;DHT22;64604;44.752;37.674;2022-11-25T01:52:21;15.10;57.64
75925;DHT22;64604;44.752;37.674;2022-11-25T01:53:25;15.10;57.30
75925;DHT22;64604;44.752;37.674;2022-11-25T01:54:34;15.11;57.11
75925;DHT22;64604;44.752;37.674;2022-11-25T01:55:40;15.15;56.96
75925;DHT22;64604;44.752;37.674;2022-11-25T01:56:49;15.15;58.25
75925;DHT22;64604;44.752;37.674;2022-11-25T01:58:15;15.11;57.42
75925;DHT22;64604;44.752;37.674;2022-11-25T01:59:18;15.08;58.03
75925;DHT22;64604;44.752;37.674;2022-11-25T02:00:21;15.08;57.90
75925;DHT22;64604;44.752;37.674;2022-11-25T02:01:25;15.07;57.64
75925;DHT22;64604;44.752;37.674;2022-11-25T02:02:30;15.08;57.50
75925;DHT22;64604;44.752;37.674;2022-11-25T02:03:40;15.10;57.96
75925;DHT22;64604;44.752;37.674;2022-11-25T02:04:43;15.07;57.63
75925;DHT22;64604;44.752;37.674;2022-11-25T02:05:51;15.09;58.15
75925;DHT22;64604;44.752;37.674;2022-11-25T02:06:59;15.08;58.22
75925;DHT22;64604;44.752;37.674;2022-11-25T02:08:05;15.10;58.22
75925;DHT22;64604;44.752;37.674;2022-11-25T02:09:11;15.09;58.07
75925;DHT22;64604;44.752;37.674;2022-11-25T02:10:23;15.08;58.39
75925;DHT22;64604;44.752;37.674;2022-11-25T02:11:27;15.03;58.63
75925;DHT22;64604;44.752;37.674;2022-11-25T02:12:36;15.09;56.33
75925;DHT22;64604;44.752;37.674;2022-11-25T02:13:39;15.19;55.90
75925;DHT22;64604;44.752;37.674;2022-11-25T02:14:41;15.26;56.26
75925;DHT22;64604;44.752;37.674;2022-11-25T02:15:46;15.32;55.46
75925;DHT22;64604;44.752;37.674;2022-11-25T02:16:48;15.34;55.74
75925;DHT22;64604;44.752;37.674;2022-11-25T02:17:50;15.36;55.87
75925;DHT22;64604;44.752;37.674;2022-11-25T02:18:52;15.39;55.80
75925;DHT22;64604;44.752;37.674;2022-11-25T02:20:09;15.42;55.36
75925;DHT22;64604;44.752;37.674;2022-11-25T02:21:16;15.44;55.14
75925;DHT22;64604;44.752;37.674;2022-11-25T02:24:52;15.57;54.47
75925;DHT22;64604;44.752;37.674;2022-11-25T02:25:55;15.58;54.71
75925;DHT22;64604;44.752;37.674;2022-11-25T02:26:58;15.57;55.57
75925;DHT22;64604;44.752;37.674;2022-11-25T02:29:05;15.55;56.41
75925;DHT22;64604;44.752;37.674;2022-11-25T02:30:10;15.53;55.87
75925;DHT22;64604;44.752;37.674;2022-11-25T02:31:20;15.51;56.18
75925;DHT22;64604;44.752;37.674;2022-11-25T02:32:23;15.49;56.43
75925;DHT22;64604;44.752;37.674;2022-11-25T02:33:25;15.48;56.52
75925;DHT22;64604;44.752;37.674;2022-11-25T02:34:30;15.47;56.41
75925;DHT22;64604;44.752;37.674;2022-11-25T02:35:37;15.46;56.40
75925;DHT22;64604;44.752;37.674;2022-11-25T02:36:39;15.42;56.80
75925;DHT22;64604;44.752;37.674;2022-11-25T02:37:41;15.34;57.80
75925;DHT22;64604;44.752;37.674;2022-11-25T02:38:48;15.26;58.61
75925;DHT22;64604;44.752;37.674;2022-11-25T02:39:50;15.15;59.32
75925;DHT22;64604;44.752;37.674;2022-11-25T02:41:11;15.08;59.73
75925;DHT22;64604;44.752;37.674;2022-11-25T02:42:16;15.03;59.51
75925;DHT22;64604;44.752;37.674;2022-11-25T02:43:21;15.04;59.19
75925;DHT22;64604;44.752;37.674;2022-11-25T02:44:22;15.06;59.26
75925;DHT22;64604;44.752;37.674;2022-11-25T02:45:38;15.09;58.20
75925;DHT22;64604;44.752;37.674;2022-11-25T02:46:40;15.10;59.10
75925;DHT22;64604;44.752;37.674;2022-11-25T02:47:41;15.14;58.92
75925;DHT22;64604;44.752;37.674;2022-11-25T02:48:43;15.16;58.59
75925;DHT22;64604;44.752;37.674;2022-11-25T02:49:45;15.19;58.74
75925;DHT22;64604;44.752;37.674;2022-11-25T02:50:47;15.22;58.63
75925;DHT22;64604;44.752;37.674;2022-11-25T02:51:49;15.22;58.66
75925;DHT22;64604;44.752;37.674;2022-11-25T02:52:51;15.22;59.09
75925;DHT22;64604;44.752;37.674;2022-11-25T02:53:54;15.24;58.57
75925;DHT22;64604;44.752;37.674;2022-11-25T02:54:58;15.22;58.77
75925;DHT22;64604;44.752;37.674;2022-11-25T02:55:59;15.23;58.71
75925;DHT22;64604;44.752;37.674;2022-11-25T02:57:01;15.26;58.74
75925;DHT22;64604;44.752;37.674;2022-11-25T02:58:06;15.26;59.14
75925;DHT22;64604;44.752;37.674;2022-11-25T02:59:09;15.26;59.00
75925;DHT22;64604;44.752;37.674;2022-11-25T03:00:11;15.25;59.14
75925;DHT22;64604;44.752;37.674;2022-11-25T03:01:14;15.26;59.74
75925;DHT22;64604;44.752;37.674;2022-11-25T03:02:16;15.23;59.82
75925;DHT22;64604;44.752;37.674;2022-11-25T03:03:18;15.21;59.77
75925;DHT22;64604;44.752;37.674;2022-11-25T03:04:21;15.19;60.93
75925;DHT22;64604;44.752;37.674;2022-11-25T03:05:23;15.17;60.22
75925;DHT22;64604;44.752;37.674;2022-11-25T03:06:25;15.14;60.87
75925;DHT22;64604;44.752;37.674;2022-11-25T03:07:27;15.13;61.00
75925;DHT22;64604;44.752;37.674;2022-11-25T03:08:29;15.15;60.86
75925;DHT22;64604;44.752;37.674;2022-11-25T03:09:30;15.16;61.04
75925;DHT22;64604;44.752;37.674;2022-11-25T03:10:32;15.14;61.06
75925;DHT22;64604;44.752;37.674;2022-11-25T03:11:34;15.11;61.57
75925;DHT22;64604;44.752;37.674;2022-11-25T03:12:54;15.09;62.03
75925;DHT22;64604;44.752;37.674;2022-11-25T03:13:57;15.08;62.10
75925;DHT22;64604;44.752;37.674;2022-11-25T03:14:59;15.06;62.80
75925;DHT22;64604;44.752;37.674;2022-11-25T03:16:02;15.04;63.14
75925;DHT22;64604;44.752;37.674;2022-11-25T03:17:04;15.02;63.25
75925;DHT22;64604;44.752;37.674;2022-11-25T03:18:06;14.98;63.43
75925;DHT22;64604;44.752;37.674;2022-11-25T03:19:08;14.96;63.88
75925;DHT22;64604;44.752;37.674;2022-11-25T03:20:10;14.94;63.78
75925;DHT22;64604;44.752;37.674;2022-11-25T03:21:13;14.93;63.65
75925;DHT22;64604;44.752;37.674;2022-11-25T03:22:14;14.89;64.14
75925;DHT22;64604;44.752;37.674;2022-11-25T03:23:16;14.85;64.92
75925;DHT22;64604;44.752;37.674;2022-11-25T03:24:17;14.80;65.30
75925;DHT22;64604;44.752;37.674;2022-11-25T03:25:22;14.77;65.70
75925;DHT22;64604;44.752;37.674;2022-11-25T03:26:24;14.74;66.68
75925;DHT22;64604;44.752;37.674;2022-11-25T03:27:27;14.72;66.75
75925;DHT22;64604;44.752;37.674;2022-11-25T03:28:29;14.70;67.59
75925;DHT22;64604;44.752;37.674;2022-11-25T03:29:31;14.67;68.60
75925;DHT22;64604;44.752;37.674;2022-11-25T03:30:32;14.66;68.90
75925;DHT22;64604;44.752;37.674;2022-11-25T03:31:36;14.63;69.45
75925;DHT22;64604;44.752;37.674;2022-11-25T03:32:37;14.63;69.98
75925;DHT22;64604;44.752;37.674;2022-11-25T03:33:40;14.63;70.17
75925;DHT22;64604;44.752;37.674;2022-11-25T03:34:41;14.63;70.63
75925;DHT22;64604;44.752;37.674;2022-11-25T03:35:43;14.58;71.20
75925;DHT22;64604;44.752;37.674;2022-11-25T03:36:44;14.56;71.22
75925;DHT22;64604;44.752;37.674;2022-11-25T03:37:46;14.55;71.60
75925;DHT22;64604;44.752;37.674;2022-11-25T03:38:48;14.52;72.28
75925;DHT22;64604;44.752;37.674;2022-11-25T03:39:49;14.52;72.42
75925;DHT22;64604;44.752;37.674;2022-11-25T03:40:51;14.52;72.64
75925;DHT22;64604;44.752;37.674;2022-11-25T03:41:53;14.49;72.55
75925;DHT22;64604;44.752;37.674;2022-11-25T03:42:55;14.44;72.06
75925;DHT22;64604;44.752;37.674;2022-11-25T03:43:57;14.36;72.13
75925;DHT22;64604;44.752;37.674;2022-11-25T03:44:59;14.28;72.56
75925;DHT22;64604;44.752;37.674;2022-11-25T03:46:01;14.21;73.00
75925;DHT22;64604;44.752;37.674;2022-11-25T03:47:03;14.14;73.51
75925;DHT22;64604;44.752;37.674;2022-11-25T03:48:04;14.12;73.97
75925;DHT22;64604;44.752;37.674;2022-11-25T03:49:06;14.09;74.42
75925;DHT22;64604;44.752;37.674;2022-11-25T03:50:10;14.06;74.78
75925;DHT22;64604;44.752;37.674;2022-11-25T03:51:12;14.03;74.99
75925;DHT22;64604;44.752;37.674;2022-11-25T03:52:13;14.00;75.25
75925;DHT22;64604;44.752;37.674;2022-11-25T03:53:16;13.98;75.47
75925;DHT22;64604;44.752;37.674;2022-11-25T03:54:18;13.94;75.59
75925;DHT22;64604;44.752;37.674;2022-11-25T03:55:39;13.91;75.78
75925;DHT22;64604;44.752;37.674;2022-11-25T03:56:41;13.85;75.92
75925;DHT22;64604;44.752;37.674;2022-11-25T03:57:42;13.82;75.90
75925;DHT22;64604;44.752;37.674;2022-11-25T03:58:44;13.79;76.12
75925;DHT22;64604;44.752;37.674;2022-11-25T03:59:46;13.75;76.42
75925;DHT22;64604;44.752;37.674;2022-11-25T04:00:49;13.71;76.84
75925;DHT22;64604;44.752;37.674;2022-11-25T04:01:51;13.70;76.44
75925;DHT22;64604;44.752;37.674;2022-11-25T04:02:53;13.65;76.60
75925;DHT22;64604;44.752;37.674;2022-11-25T04:03:55;13.64;76.76
75925;DHT22;64604;44.752;37.674;2022-11-25T04:04:57;13.58;76.57
75925;DHT22;64604;44.752;37.674;2022-11-25T04:05:58;13.52;77.09
75925;DHT22;64604;44.752;37.674;2022-11-25T04:07:00;13.46;76.91
75925;DHT22;64604;44.752;37.674;2022-11-25T04:08:01;13.38;77.47
75925;DHT22;64604;44.752;37.674;2022-11-25T04:09:08;13.33;77.30
75925;DHT22;64604;44.752;37.674;2022-11-25T04:10:11;13.27;77.66
75925;DHT22;64604;44.752;37.674;2022-11-25T04:11:14;13.23;77.76
75925;DHT22;64604;44.752;37.674;2022-11-25T04:12:18;13.19;77.91
75925;DHT22;64604;44.752;37.674;2022-11-25T04:13:41;13.11;77.66
75925;DHT22;64604;44.752;37.674;2022-11-25T04:14:43;13.09;78.14
75925;DHT22;64604;44.752;37.674;2022-11-25T04:15:46;13.07;78.42
75925;DHT22;64604;44.752;37.674;2022-11-25T04:16:48;13.05;79.42
75925;DHT22;64604;44.752;37.674;2022-11-25T04:17:49;13.07;80.31
75925;DHT22;64604;44.752;37.674;2022-11-25T04:18:51;13.05;80.10
75925;DHT22;64604;44.752;37.674;2022-11-25T04:19:53;13.05;80.16
75925;DHT22;64604;44.752;37.674;2022-11-25T04:20:54;12.97;81.04
75925;DHT22;64604;44.752;37.674;2022-11-25T04:21:56;12.91;81.78
75925;DHT22;64604;44.752;37.674;2022-11-25T04:23:02;12.87;82.28
75925;DHT22;64604;44.752;37.674;2022-11-25T04:24:04;12.78;84.29
75925;DHT22;64604;44.752;37.674;2022-11-25T04:25:07;12.71;84.61
75925;DHT22;64604;44.752;37.674;2022-11-25T04:26:10;12.64;84.87
75925;DHT22;64604;44.752;37.674;2022-11-25T04:27:14;12.60;84.46
75925;DHT22;64604;44.752;37.674;2022-11-25T04:28:16;12.53;84.80
75925;DHT22;64604;44.752;37.674;2022-11-25T04:29:18;12.53;84.66
75925;DHT22;64604;44.752;37.674;2022-11-25T04:30:20;12.55;85.23
75925;DHT22;64604;44.752;37.674;2022-11-25T04:31:22;12.57;84.86
75925;DHT22;64604;44.752;37.674;2022-11-25T04:32:32;12.58;85.17
75925;DHT22;64604;44.752;37.674;2022-11-25T04:33:34;12.55;84.61
75925;DHT22;64604;44.752;37.674;2022-11-25T04:34:36;12.51;85.13
75925;DHT22;64604;44.752;37.674;2022-11-25T04:35:38;12.51;85.26
75925;DHT22;64604;44.752;37.674;2022-11-25T04:36:41;12.53;85.30
75925;DHT22;64604;44.752;37.674;2022-11-25T04:37:42;12.52;85.38
75925;DHT22;64604;44.752;37.674;2022-11-25T04:38:44;12.53;85.89
75925;DHT22;64604;44.752;37.674;2022-11-25T04:39:46;12.48;85.97
75925;DHT22;64604;44.752;37.674;2022-11-25T04:40:52;12.49;86.41
75925;DHT22;64604;44.752;37.674;2022-11-25T04:41:56;12.51;86.76
75925;DHT22;64604;44.752;37.674;2022-11-25T04:43:17;12.55;86.87
75925;DHT22;64604;44.752;37.674;2022-11-25T04:44:25;12.57;86.83
75925;DHT22;64604;44.752;37.674;2022-11-25T04:45:27;12.60;86.83
75925;DHT22;64604;44.752;37.674;2022-11-25T04:46:36;12.63;87.11
75925;DHT22;64604;44.752;37.674;2022-11-25T04:47:40;12.66;87.01
75925;DHT22;64604;44.752;37.674;2022-11-25T04:48:42;12.71;86.91
75925;DHT22;64604;44.752;37.674;2022-11-25T04:49:44;12.75;86.77
75925;DHT22;64604;44.752;37.674;2022-11-25T04:50:47;12.80;86.61
75925;DHT22;64604;44.752;37.674;2022-11-25T04:51:48;12.85;86.62
75925;DHT22;64604;44.752;37.674;2022-11-25T04:52:50;12.88;86.90
75925;DHT22;64604;44.752;37.674;2022-11-25T04:53:52;12.92;86.93
75925;DHT22;64604;44.752;37.674;2022-11-25T04:54:54;12.96;86.13
75925;DHT22;64604;44.752;37.674;2022-11-25T04:55:55;13.00;86.71
75925;DHT22;64604;44.752;37.674;2022-11-25T04:56:57;13.03;86.16
75925;DHT22;64604;44.752;37.674;2022-11-25T04:57:59;13.06;86.25
75925;DHT22;64604;44.752;37.674;2022-11-25T04:59:01;13.06;86.06
75925;DHT22;64604;44.752;37.674;2022-11-25T05:00:22;13.03;86.38
75925;DHT22;64604;44.752;37.674;2022-11-25T05:01:23;13.04;85.99
75925;DHT22;64604;44.752;37.674;2022-11-25T05:02:29;13.03;85.75
75925;DHT22;64604;44.752;37.674;2022-11-25T05:03:44;13.06;86.03
75925;DHT22;64604;44.752;37.674;2022-11-25T05:04:47;13.05;85.69
75925;DHT22;64604;44.752;37.674;2022-11-25T05:05:49;13.07;85.64
75925;DHT22;64604;44.752;37.674;2022-11-25T05:06:51;13.08;85.73
75925;DHT22;64604;44.752;37.674;2022-11-25T05:07:54;13.10;85.68
75925;DHT22;64604;44.752;37.674;2022-11-25T05:08:56;13.11;85.75
75925;DHT22;64604;44.752;37.674;2022-11-25T05:10:00;13.11;85.35
75925;DHT22;64604;44.752;37.674;2022-11-25T05:11:11;13.15;85.44
75925;DHT22;64604;44.752;37.674;2022-11-25T05:12:16;13.16;85.29
75925;DHT22;64604;44.752;37.674;2022-11-25T05:13:17;13.19;85.71
75925;DHT22;64604;44.752;37.674;2022-11-25T05:14:19;13.20;85.01
75925;DHT22;64604;44.752;37.674;2022-11-25T05:15:20;13.21;84.87
75925;DHT22;64604;44.752;37.674;2022-11-25T05:16:22;13.24;85.19
75925;DHT22;64604;44.752;37.674;2022-11-25T05:17:27;13.27;84.46
75925;DHT22;64604;44.752;37.674;2022-11-25T05:18:29;13.27;84.41
75925;DHT22;64604;44.752;37.674;2022-11-25T05:19:31;13.31;84.45
75925;DHT22;64604;44.752;37.674;2022-11-25T05:20:33;13.32;84.42
75925;DHT22;64604;44.752;37.674;2022-11-25T05:21:35;13.31;84.49
75925;DHT22;64604;44.752;37.674;2022-11-25T05:22:36;13.31;84.60
75925;DHT22;64604;44.752;37.674;2022-11-25T05:23:40;13.34;84.44
75925;DHT22;64604;44.752;37.674;2022-11-25T05:24:42;13.33;84.48
75925;DHT22;64604;44.752;37.674;2022-11-25T05:25:44;13.32;84.55
75925;DHT22;64604;44.752;37.674;2022-11-25T05:27:00;13.30;84.91
75925;DHT22;64604;44.752;37.674;2022-11-25T05:28:02;13.30;84.99
75925;DHT22;64604;44.752;37.674;2022-11-25T05:29:04;13.29;84.93
75925;DHT22;64604;44.752;37.674;2022-11-25T05:30:08;13.31;84.65
75925;DHT22;64604;44.752;37.674;2022-11-25T05:31:09;13.29;85.04
75925;DHT22;64604;44.752;37.674;2022-11-25T05:32:12;13.30;84.84
75925;DHT22;64604;44.752;37.674;2022-11-25T05:33:14;13.29;84.61
75925;DHT22;64604;44.752;37.674;2022-11-25T05:34:16;13.31;84.84
75925;DHT22;64604;44.752;37.674;2022-11-25T05:35:19;13.31;84.32
75925;DHT22;64604;44.752;37.674;2022-11-25T05:36:22;13.33;84.19
75925;DHT22;64604;44.752;37.674;2022-11-25T05:37:24;13.38;84.12
75925;DHT22;64604;44.752;37.674;2022-11-25T05:38:31;13.38;83.96
75925;DHT22;64604;44.752;37.674;2022-11-25T05:39:33;13.40;83.94
75925;DHT22;64604;44.752;37.674;2022-11-25T05:41:03;13.43;83.65
75925;DHT22;64604;44.752;37.674;2022-11-25T05:42:05;13.44;83.94
75925;DHT22;64604;44.752;37.674;2022-11-25T05:43:07;13.46;83.84
75925;DHT22;64604;44.752;37.674;2022-11-25T05:44:10;13.46;84.09
75925;DHT22;64604;44.752;37.674;2022-11-25T05:45:13;13.47;83.93
75925;DHT22;64604;44.752;37.674;2022-11-25T05:46:15;13.49;83.80
75925;DHT22;64604;44.752;37.674;2022-11-25T05:47:24;13.51;83.57
75925;DHT22;64604;44.752;37.674;2022-11-25T05:48:27;13.54;83.53
75925;DHT22;64604;44.752;37.674;2022-11-25T05:49:28;13.56;83.57
75925;DHT22;64604;44.752;37.674;2022-11-25T05:50:30;13.58;83.42
75925;DHT22;64604;44.752;37.674;2022-11-25T05:51:42;13.59;83.39
75925;DHT22;64604;44.752;37.674;2022-11-25T05:52:43;13.61;83.45
75925;DHT22;64604;44.752;37.674;2022-11-25T05:53:45;13.63;83.31
75925;DHT22;64604;44.752;37.674;2022-11-25T05:54:46;13.62;83.36
75925;DHT22;64604;44.752;37.674;2022-11-25T05:55:57;13.64;83.40
75925;DHT22;64604;44.752;37.674;2022-11-25T05:57:21;13.63;83.19
75925;DHT22;64604;44.752;37.674;2022-11-25T05:58:30;13.64;83.36
75925;DHT22;64604;44.752;37.674;2022-11-25T05:59:34;13.64;83.49
75925;DHT22;64604;44.752;37.674;2022-11-25T06:00:47;13.62;83.65
75925;DHT22;64604;44.752;37.674;2022-11-25T06:01:52;13.62;83.75
75925;DHT22;64604;44.752;37.674;2022-11-25T06:02:53;13.60;83.76
75925;DHT22;64604;44.752;37.674;2022-11-25T06:04:03;13.61;83.85
75925;DHT22;64604;44.752;37.674;2022-11-25T06:05:05;13.60;83.87
75925;DHT22;64604;44.752;37.674;2022-11-25T06:06:07;13.60;83.86
75925;DHT22;64604;44.752;37.674;2022-11-25T06:07:09;13.58;83.96
75925;DHT22;64604;44.752;37.674;2022-11-25T06:08:11;13.59;83.74
75925;DHT22;64604;44.752;37.674;2022-11-25T06:09:12;13.59;83.83
75925;DHT22;64604;44.752;37.674;2022-11-25T06:10:16;13.60;83.78
75925;DHT22;64604;44.752;37.674;2022-11-25T06:11:18;13.61;83.95
75925;DHT22;64604;44.752;37.674;2022-11-25T06:12:20;13.63;83.78
75925;DHT22;64604;44.752;37.674;2022-11-25T06:13:24;13.66;83.87
75925;DHT22;64604;44.752;37.674;2022-11-25T06:14:25;13.68;83.95
75925;DHT22;64604;44.752;37.674;2022-11-25T06:15:27;13.70;83.51
75925;DHT22;64604;44.752;37.674;2022-11-25T06:16:31;13.73;83.36
75925;DHT22;64604;44.752;37.674;2022-11-25T06:17:52;13.77;83.20
75925;DHT22;64604;44.752;37.674;2022-11-25T06:19:00;13.81;82.87
75925;DHT22;64604;44.752;37.674;2022-11-25T06:20:06;13.85;83.39
75925;DHT22;64604;44.752;37.674;2022-11-25T06:21:09;13.88;82.92
75925;DHT22;64604;44.752;37.674;2022-11-25T06:22:11;13.90;82.29
75925;DHT22;64604;44.752;37.674;2022-11-25T06:23:13;13.94;82.29
75925;DHT22;64604;44.752;37.674;2022-11-25T06:24:15;13.99;82.00
75925;DHT22;64604;44.752;37.674;2022-11-25T06:25:18;14.03;81.93
75925;DHT22;64604;44.752;37.674;2022-11-25T06:26:22;14.07;81.75
75925;DHT22;64604;44.752;37.674;2022-11-25T06:27:24;14.13;81.41
75925;DHT22;64604;44.752;37.674;2022-11-25T06:28:26;14.18;81.32
75925;DHT22;64604;44.752;37.674;2022-11-25T06:29:27;14.19;80.58
75925;DHT22;64604;44.752;37.674;2022-11-25T06:30:30;14.23;80.65
75925;DHT22;64604;44.752;37.674;2022-11-25T06:31:49;14.25;81.17
75925;DHT22;64604;44.752;37.674;2022-11-25T06:33:08;14.29;80.24
75925;DHT22;64604;44.752;37.674;2022-11-25T06:34:10;14.33;80.43
75925;DHT22;64604;44.752;37.674;2022-11-25T06:35:14;14.33;80.07
75925;DHT22;64604;44.752;37.674;2022-11-25T06:36:25;14.35;80.24
75925;DHT22;64604;44.752;37.674;2022-11-25T06:37:26;14.37;79.69
75925;DHT22;64604;44.752;37.674;2022-11-25T06:38:28;14.40;79.45
75925;DHT22;64604;44.752;37.674;2022-11-25T06:39:29;14.42;79.47
75925;DHT22;64604;44.752;37.674;2022-11-25T06:40:31;14.45;79.21
75925;DHT22;64604;44.752;37.674;2022-11-25T06:41:32;14.49;79.43
75925;DHT22;64604;44.752;37.674;2022-11-25T06:42:34;14.52;78.82
75925;DHT22;64604;44.752;37.674;2022-11-25T06:43:37;14.55;78.95
75925;DHT22;64604;44.752;37.674;2022-11-25T06:44:39;14.58;78.35